createdAt,value
2023-02-04T00:02:23.371Z,20.90
2023-02-04T00:04:50.538Z,19.20
2023-02-04T00:07:18.596Z,18.70
2023-02-04T00:09:47.370Z,18.30
2023-02-04T00:12:14.206Z,19.70
2023-02-04T00:14:41.010Z,19.80
2023-02-04T00:17:10.594Z,19.20
2023-02-04T00:19:38.168Z,22.70
2023-02-04T00:22:07.186Z,21.30
2023-02-04T00:24:34.308Z,20.40
2023-02-04T00:27:01.189Z,17.20
2023-02-04T00:29:28.112Z,16.60
2023-02-04T00:31:55.089Z,16.40
2023-02-04T00:34:22.168Z,16.80
2023-02-04T00:36:49.272Z,18.00
2023-02-04T00:39:17.179Z,17.80
2023-02-04T00:41:44.163Z,17.00
2023-02-04T00:44:14.329Z,18.10
2023-02-04T00:46:41.325Z,17.00
2023-02-04T00:49:10.647Z,16.70
2023-02-04T00:51:37.452Z,16.50
2023-02-04T00:54:05.287Z,16.30
2023-02-04T00:56:32.061Z,19.40
2023-02-04T00:58:59.119Z,16.40
2023-02-04T01:01:26.296Z,16.00
2023-02-04T01:03:53.067Z,16.60
2023-02-04T01:06:19.841Z,17.40
2023-02-04T01:08:46.896Z,18.40
2023-02-04T01:11:13.709Z,19.60
2023-02-04T01:13:40.472Z,19.70
2023-02-04T01:16:07.728Z,17.10
2023-02-04T01:18:34.603Z,16.50
2023-02-04T01:21:01.461Z,16.80
2023-02-04T01:23:28.489Z,18.40
2023-02-04T01:25:55.326Z,18.60
2023-02-04T01:28:22.180Z,19.60
2023-02-04T01:30:49.346Z,15.50
2023-02-04T01:33:16.159Z,17.30
2023-02-04T01:35:43.373Z,16.40
2023-02-04T01:38:10.493Z,18.30
2023-02-04T01:40:37.519Z,20.70
2023-02-04T01:43:04.609Z,19.10
2023-02-04T01:45:34.622Z,22.10
2023-02-04T01:48:01.560Z,20.50
2023-02-04T01:50:28.576Z,19.60
2023-02-04T01:52:55.841Z,19.70
2023-02-04T01:55:26.553Z,20.40
2023-02-04T01:57:54.186Z,21.20
2023-02-04T02:00:26.422Z,22.50
2023-02-04T02:02:54.668Z,21.70
2023-02-04T02:05:25.502Z,23.10
2023-02-04T02:07:55.258Z,20.90
2023-02-04T02:10:22.944Z,23.60
2023-02-04T02:12:50.967Z,19.40
2023-02-04T02:15:18.652Z,18.30
2023-02-04T02:17:46.293Z,19.20
2023-02-04T02:20:17.325Z,18.10
2023-02-04T02:22:52.708Z,18.60
2023-02-04T02:25:19.812Z,19.00
2023-02-04T02:27:47.013Z,20.70
2023-02-04T02:30:17.728Z,20.00
2023-02-04T02:32:45.360Z,18.80
2023-02-04T02:35:13.066Z,19.70
2023-02-04T02:37:39.932Z,17.60
2023-02-04T02:40:08.338Z,17.20
2023-02-04T02:42:35.586Z,17.10
2023-02-04T02:45:04.453Z,14.50
2023-02-04T02:47:31.350Z,16.30
2023-02-04T02:49:59.312Z,15.00
2023-02-04T02:52:26.213Z,15.30
2023-02-04T02:54:53.829Z,14.80
2023-02-04T02:57:24.162Z,14.60
2023-02-04T02:59:51.516Z,13.90
2023-02-04T03:02:22.845Z,10.90
2023-02-04T03:04:54.893Z,13.10
2023-02-04T03:07:24.492Z,12.20
2023-02-04T03:09:53.698Z,11.90
2023-02-04T03:12:21.056Z,11.20
2023-02-04T03:14:48.517Z,10.80
2023-02-04T03:17:15.363Z,12.50
2023-02-04T03:19:42.562Z,13.30
2023-02-04T03:22:10.108Z,10.90
2023-02-04T03:24:37.541Z,13.30
2023-02-04T03:27:05.041Z,12.10
2023-02-04T03:29:31.875Z,10.90
2023-02-04T03:32:00.217Z,13.10
2023-02-04T03:34:27.195Z,12.70
2023-02-04T03:36:54.245Z,11.80
2023-02-04T03:39:20.995Z,13.90
2023-02-04T03:41:47.766Z,12.70
2023-02-04T03:44:14.564Z,12.20
2023-02-04T03:46:41.344Z,13.10
2023-02-04T03:49:08.189Z,11.00
2023-02-04T03:51:34.995Z,11.00
2023-02-04T03:54:01.772Z,10.10
2023-02-04T03:56:28.929Z,11.30
2023-02-04T03:58:55.732Z,11.50
2023-02-04T04:01:22.944Z,11.00
2023-02-04T04:03:49.732Z,14.60
2023-02-04T04:06:16.498Z,10.70
2023-02-04T04:08:43.252Z,10.80
2023-02-04T04:11:12.586Z,12.60
2023-02-04T04:13:39.273Z,11.00
2023-02-04T04:16:07.008Z,11.30
2023-02-04T04:18:34.734Z,11.40
2023-02-04T04:21:01.659Z,10.50
2023-02-04T04:23:28.568Z,13.20
2023-02-04T04:25:55.359Z,14.60
2023-02-04T04:28:22.091Z,12.20
2023-02-04T04:30:48.977Z,13.90
2023-02-04T04:33:16.130Z,12.20
2023-02-04T04:35:42.975Z,13.90
2023-02-04T04:38:09.786Z,14.10
2023-02-04T04:40:36.924Z,15.20
2023-02-04T04:43:03.805Z,13.90
2023-02-04T04:45:30.738Z,17.50
2023-02-04T04:47:57.575Z,14.10
2023-02-04T04:50:24.366Z,14.80
2023-02-04T04:52:51.225Z,13.80
2023-02-04T04:55:18.385Z,15.10
2023-02-04T04:57:45.112Z,13.80
2023-02-04T05:00:19.104Z,14.70
2023-02-04T05:02:46.039Z,14.40
2023-02-04T05:05:13.623Z,14.30
2023-02-04T05:07:40.387Z,13.50
2023-02-04T05:10:08.102Z,14.70
2023-02-04T05:12:35.242Z,13.50
2023-02-04T05:15:02.023Z,13.60
2023-02-04T05:17:28.968Z,14.30
2023-02-04T05:19:55.828Z,15.00
2023-02-04T05:22:22.792Z,12.70
2023-02-04T05:24:49.677Z,11.10
2023-02-04T05:27:16.434Z,19.50
2023-02-04T05:29:43.213Z,14.50
2023-02-04T05:32:09.983Z,13.10
2023-02-04T05:34:37.705Z,13.40
2023-02-04T05:37:05.618Z,13.40
2023-02-04T05:39:32.376Z,12.60
2023-02-04T05:41:59.136Z,12.50
2023-02-04T05:44:27.467Z,13.20
2023-02-04T05:46:54.477Z,17.90
2023-02-04T05:49:21.310Z,12.60
2023-02-04T05:51:48.221Z,12.20
2023-02-04T05:54:19.596Z,12.80
2023-02-04T05:56:46.484Z,15.00
2023-02-04T05:59:13.512Z,14.00
2023-02-04T06:01:40.330Z,12.50
2023-02-04T06:04:07.651Z,11.20
2023-02-04T06:06:34.609Z,11.20
2023-02-04T06:09:01.409Z,12.50
2023-02-04T06:11:28.230Z,11.40
2023-02-04T06:13:55.070Z,12.20
2023-02-04T06:16:21.973Z,13.80
2023-02-04T06:18:48.831Z,12.60
2023-02-04T06:21:16.046Z,13.70
2023-02-04T06:23:42.909Z,12.30
2023-02-04T06:26:09.878Z,13.80
2023-02-04T06:28:37.344Z,13.10
2023-02-04T06:31:04.730Z,12.30
2023-02-04T06:33:31.575Z,12.90
2023-02-04T06:35:58.651Z,13.30
2023-02-04T06:38:25.919Z,13.30
2023-02-04T06:40:53.847Z,13.50
2023-02-04T06:43:21.821Z,12.20
2023-02-04T06:45:48.651Z,12.70
2023-02-04T06:48:15.476Z,13.50
2023-02-04T06:50:42.416Z,11.90
2023-02-04T06:53:09.226Z,12.20
2023-02-04T06:55:36.070Z,14.50
2023-02-04T06:58:03.068Z,10.10
2023-02-04T07:00:31.151Z,13.40
2023-02-04T07:02:58.674Z,11.10
2023-02-04T07:05:25.700Z,10.40
2023-02-04T07:07:52.481Z,15.40
2023-02-04T07:10:21.025Z,10.80
2023-02-04T07:12:48.493Z,12.10
2023-02-04T07:15:18.276Z,10.20
2023-02-04T07:17:47.328Z,9.80
2023-02-04T07:20:15.230Z,10.50
2023-02-04T07:22:42.561Z,7.60
2023-02-04T07:25:11.535Z,9.40
2023-02-04T07:27:38.668Z,10.30
2023-02-04T07:30:05.941Z,9.90
2023-02-04T07:32:33.696Z,8.10
2023-02-04T07:35:00.578Z,8.20
2023-02-04T07:37:27.645Z,6.20
2023-02-04T07:39:55.066Z,7.60
2023-02-04T07:42:22.171Z,7.70
2023-02-04T07:44:53.050Z,5.80
2023-02-04T07:47:21.485Z,6.20
2023-02-04T07:49:48.282Z,6.60
2023-02-04T07:52:15.181Z,6.20
2023-02-04T07:54:43.057Z,7.70
2023-02-04T07:57:10.382Z,6.10
2023-02-04T07:59:37.307Z,6.50
2023-02-04T08:02:04.633Z,7.00
2023-02-04T08:04:31.497Z,7.20
2023-02-04T08:06:58.521Z,6.40
2023-02-04T08:09:27.236Z,7.90
2023-02-04T08:11:54.147Z,6.20
2023-02-04T08:14:21.255Z,8.50
2023-02-04T08:16:48.372Z,7.00
2023-02-04T08:19:19.050Z,5.80
2023-02-04T08:21:46.844Z,8.00
2023-02-04T08:24:14.187Z,6.10
2023-02-04T08:26:41.321Z,10.20
2023-02-04T08:29:08.417Z,10.40
2023-02-04T08:31:36.758Z,10.80
2023-02-04T08:34:03.848Z,11.10
2023-02-04T08:36:30.785Z,7.70
2023-02-04T08:38:57.791Z,8.60
2023-02-04T08:41:24.864Z,7.40
2023-02-04T08:43:51.775Z,5.80
2023-02-04T08:46:18.593Z,6.40
2023-02-04T08:48:45.406Z,4.40
2023-02-04T08:51:12.258Z,4.60
2023-02-04T08:53:40.791Z,5.90
2023-02-04T08:56:08.997Z,3.60
2023-02-04T08:58:35.942Z,7.50
2023-02-04T09:01:03.266Z,3.00
2023-02-04T09:03:30.106Z,3.60
2023-02-04T09:05:56.978Z,5.10
2023-02-04T09:08:24.262Z,4.70
2023-02-04T09:10:51.099Z,3.20
2023-02-04T09:13:17.950Z,4.50
2023-02-04T09:15:44.952Z,4.80
2023-02-04T09:18:17.063Z,4.40
2023-02-04T09:20:44.455Z,3.50
2023-02-04T09:23:12.278Z,3.10
2023-02-04T09:25:39.127Z,2.70
2023-02-04T09:28:06.963Z,4.50
2023-02-04T09:30:34.322Z,2.40
2023-02-04T09:33:01.917Z,3.50
2023-02-04T09:35:28.955Z,5.30
2023-02-04T09:37:59.347Z,5.30
2023-02-04T09:40:34.806Z,4.60
2023-02-04T09:43:02.035Z,5.20
2023-02-04T09:45:30.827Z,5.40
2023-02-04T09:47:59.922Z,2.80
2023-02-04T09:50:28.709Z,4.20
2023-02-04T09:52:58.734Z,3.30
2023-02-04T09:55:29.683Z,2.30
2023-02-04T09:57:57.029Z,3.60
2023-02-04T10:00:27.777Z,3.00
2023-02-04T10:02:55.398Z,4.60
2023-02-04T10:05:29.219Z,2.50
2023-02-04T10:07:56.928Z,3.30
2023-02-04T10:10:27.353Z,4.30
2023-02-04T10:12:57.374Z,3.90
2023-02-04T10:15:24.610Z,3.60
2023-02-04T10:17:55.277Z,4.00
2023-02-04T10:20:24.995Z,4.20
2023-02-04T10:22:55.199Z,3.60
2023-02-04T10:25:23.928Z,3.50
2023-02-04T10:27:58.105Z,5.20
2023-02-04T10:30:28.134Z,4.60
2023-02-04T10:32:55.778Z,5.90
2023-02-04T10:35:25.129Z,6.00
2023-02-04T10:38:06.084Z,5.60
2023-02-04T10:40:34.668Z,4.70
2023-02-04T10:43:09.168Z,5.70
2023-02-04T10:45:35.940Z,7.00
2023-02-04T10:48:02.722Z,5.50
2023-02-04T10:50:30.859Z,5.50
2023-02-04T10:53:19.708Z,5.00
2023-02-04T10:55:47.827Z,5.10
2023-02-04T10:58:18.061Z,5.70
2023-02-04T11:00:44.806Z,8.10
2023-02-04T11:03:16.190Z,5.80
2023-02-04T11:05:43.024Z,5.50
2023-02-04T11:08:24.400Z,7.60
2023-02-04T11:10:56.159Z,7.30
2023-02-04T11:13:29.099Z,9.50
2023-02-04T11:16:11.957Z,7.70
2023-02-04T11:18:50.817Z,8.50
2023-02-04T11:21:25.387Z,8.30
2023-02-04T11:24:04.121Z,7.50
2023-02-04T11:26:37.285Z,6.60
2023-02-04T11:29:31.238Z,9.10
2023-02-04T11:32:03.862Z,6.00
2023-02-04T11:34:47.797Z,7.30
2023-02-04T11:37:19.704Z,8.80
2023-02-04T11:39:51.191Z,7.80
2023-02-04T11:42:21.722Z,7.50
2023-02-04T11:44:56.905Z,6.00
2023-02-04T11:47:26.666Z,6.40
2023-02-04T11:49:59.929Z,6.90
2023-02-04T11:52:26.893Z,7.50
2023-02-04T11:54:58.997Z,8.70
2023-02-04T11:57:26.208Z,8.10
2023-02-04T11:59:53.269Z,8.80
2023-02-04T12:02:22.009Z,7.30
2023-02-04T12:04:57.653Z,9.50
2023-02-04T12:07:31.848Z,8.10
2023-02-04T12:09:59.443Z,8.50
2023-02-04T12:12:31.395Z,8.20
2023-02-04T12:15:06.228Z,13.10
2023-02-04T12:17:33.395Z,10.30
2023-02-04T12:20:00.354Z,12.50
2023-02-04T12:22:27.530Z,8.20
2023-02-04T12:24:54.500Z,10.10
2023-02-04T12:27:23.253Z,9.30
2023-02-04T12:29:50.485Z,9.70
2023-02-04T12:32:17.462Z,9.60
2023-02-04T12:34:46.456Z,11.10
2023-02-04T12:37:13.567Z,10.80
2023-02-04T12:39:40.917Z,10.50
2023-02-04T12:42:08.611Z,12.50
2023-02-04T12:44:36.366Z,10.20
2023-02-04T12:47:03.908Z,11.60
2023-02-04T12:49:30.872Z,8.20
2023-02-04T12:52:02.230Z,10.30
2023-02-04T12:54:29.884Z,10.00
2023-02-04T12:56:58.302Z,10.10
2023-02-04T12:59:25.561Z,12.30
2023-02-04T13:01:53.075Z,9.80
2023-02-04T13:04:20.315Z,12.10
2023-02-04T13:06:47.191Z,11.10
2023-02-04T13:09:17.148Z,10.70
2023-02-04T13:11:44.182Z,11.00
2023-02-04T13:14:11.098Z,11.60
2023-02-04T13:16:38.057Z,7.60
2023-02-04T13:19:06.060Z,8.50
2023-02-04T13:21:32.963Z,6.10
2023-02-04T13:24:00.865Z,7.50
2023-02-04T13:26:28.255Z,7.20
2023-02-04T13:28:55.138Z,9.10
2023-02-04T13:31:22.327Z,8.10
2023-02-04T13:33:49.284Z,7.90
2023-02-04T13:36:16.427Z,6.30
2023-02-04T13:38:43.567Z,8.10
2023-02-04T13:41:10.698Z,7.30
2023-02-04T13:43:37.694Z,7.10
2023-02-04T13:46:06.329Z,5.60
2023-02-04T13:48:35.179Z,6.70
2023-02-04T13:51:03.291Z,5.60
2023-02-04T13:53:31.206Z,4.70
2023-02-04T13:55:58.713Z,4.50
2023-02-04T13:58:25.742Z,5.60
2023-02-04T14:00:57.484Z,8.30
2023-02-04T14:03:26.303Z,7.10
2023-02-04T14:05:53.689Z,4.90
2023-02-04T14:08:20.901Z,6.50
2023-02-04T14:10:48.230Z,10.30
2023-02-04T14:13:15.464Z,7.40
2023-02-04T14:15:42.617Z,7.70
2023-02-04T14:18:10.298Z,9.30
2023-02-04T14:20:37.152Z,9.20
2023-02-04T14:23:05.124Z,7.20
2023-02-04T14:25:32.232Z,7.20
2023-02-04T14:28:00.294Z,5.60
2023-02-04T14:30:29.592Z,9.20
2023-02-04T14:32:57.640Z,8.00
2023-02-04T14:35:26.136Z,7.30
2023-02-04T14:37:53.194Z,6.90
2023-02-04T14:40:21.413Z,7.30
2023-02-04T14:42:48.459Z,7.00
2023-02-04T14:45:17.231Z,5.10
2023-02-04T14:47:44.793Z,5.30
2023-02-04T14:50:15.596Z,5.30
2023-02-04T14:52:43.561Z,5.90
2023-02-04T14:55:14.779Z,7.20
2023-02-04T14:57:42.106Z,6.80
2023-02-04T15:00:11.304Z,7.50
2023-02-04T15:02:39.338Z,8.40
2023-02-04T15:05:06.797Z,7.10
2023-02-04T15:07:33.758Z,8.60
2023-02-04T15:10:00.642Z,7.10
2023-02-04T15:12:27.725Z,10.30
2023-02-04T15:14:54.636Z,8.10
2023-02-04T15:17:21.428Z,9.10
2023-02-04T15:19:48.382Z,8.00
2023-02-04T15:22:15.985Z,7.40
2023-02-04T15:24:43.102Z,8.20
2023-02-04T15:27:09.935Z,7.90
2023-02-04T15:29:37.557Z,8.80
2023-02-04T15:32:04.610Z,10.20
2023-02-04T15:34:31.742Z,9.60
2023-02-04T15:36:58.521Z,8.80
2023-02-04T15:39:25.392Z,11.00
2023-02-04T15:41:52.408Z,9.10
2023-02-04T15:44:21.565Z,9.10
2023-02-04T15:46:49.846Z,9.70
2023-02-04T15:49:17.011Z,8.20
2023-02-04T15:51:43.794Z,7.80
2023-02-04T15:54:10.897Z,10.40
2023-02-04T15:56:39.226Z,9.30
2023-02-04T15:59:06.182Z,11.10
2023-02-04T16:01:33.113Z,12.30
2023-02-04T16:04:00.889Z,9.70
2023-02-04T16:06:27.958Z,12.50
2023-02-04T16:08:55.135Z,11.80
2023-02-04T16:11:22.188Z,12.80
2023-02-04T16:13:49.024Z,13.70
2023-02-04T16:16:16.291Z,13.10
2023-02-04T16:18:43.287Z,11.00
2023-02-04T16:21:10.076Z,10.70
2023-02-04T16:23:36.937Z,10.20
2023-02-04T16:26:03.804Z,10.30
2023-02-04T16:28:30.656Z,10.60
2023-02-04T16:30:57.633Z,14.40
2023-02-04T16:33:25.628Z,10.60
2023-02-04T16:36:03.953Z,12.20
2023-02-04T16:38:31.961Z,14.40
2023-02-04T16:40:58.936Z,13.00
2023-02-04T16:43:26.183Z,11.80
2023-02-04T16:45:53.500Z,14.80
2023-02-04T16:48:20.334Z,16.40
2023-02-04T16:50:47.854Z,13.30
2023-02-04T16:53:16.284Z,13.10
2023-02-04T16:55:43.537Z,13.00
2023-02-04T16:58:10.886Z,14.90
2023-02-04T17:00:38.822Z,10.70
2023-02-04T17:03:07.162Z,11.40
2023-02-04T17:05:34.588Z,12.60
2023-02-04T17:08:01.636Z,12.60
2023-02-04T17:10:42.589Z,12.60
2023-02-04T17:13:09.768Z,12.50
2023-02-04T17:15:36.614Z,14.60
2023-02-04T17:18:03.850Z,14.80
2023-02-04T17:20:30.738Z,16.40
2023-02-04T17:22:57.541Z,17.30
2023-02-04T17:25:25.090Z,14.00
2023-02-04T17:27:53.197Z,13.50
2023-02-04T17:30:22.389Z,15.30
2023-02-04T17:32:49.203Z,18.50
2023-02-04T17:35:17.553Z,14.40
2023-02-04T17:37:44.385Z,14.60
2023-02-04T17:40:13.843Z,14.40
2023-02-04T17:42:41.136Z,17.50
2023-02-04T17:45:10.554Z,16.90
2023-02-04T17:47:37.319Z,15.50
2023-02-04T17:50:05.762Z,20.50
2023-02-04T17:52:33.521Z,18.60
2023-02-04T17:55:00.643Z,17.90
2023-02-04T17:57:27.772Z,19.60
2023-02-04T17:59:54.748Z,20.30
2023-02-04T18:02:30.508Z,16.00
2023-02-04T18:05:01.658Z,19.50
2023-02-04T18:07:28.616Z,17.00
2023-02-04T18:10:02.177Z,17.70
2023-02-04T18:12:29.702Z,22.00
2023-02-04T18:14:57.120Z,19.10
2023-02-04T18:17:25.163Z,17.70
2023-02-04T18:19:52.472Z,17.60
2023-02-04T18:22:20.758Z,14.50
2023-02-04T18:24:48.992Z,17.50
2023-02-04T18:27:19.978Z,18.00
2023-02-04T18:29:49.587Z,17.90
2023-02-04T18:32:21.186Z,17.60
2023-02-04T18:34:50.152Z,17.10
2023-02-04T18:37:28.156Z,18.80
2023-02-04T18:39:58.063Z,20.50
2023-02-04T18:42:28.004Z,16.00
2023-02-04T18:44:56.833Z,19.10
2023-02-04T18:47:35.882Z,18.70
2023-02-04T18:50:17.364Z,17.40
2023-02-04T18:52:45.840Z,21.20
2023-02-04T18:55:28.764Z,19.80
2023-02-04T18:57:55.646Z,22.10
2023-02-04T19:00:30.900Z,21.70
2023-02-04T19:03:09.756Z,21.60
2023-02-04T19:05:38.969Z,21.00
2023-02-04T19:08:22.987Z,22.40
2023-02-04T19:10:51.467Z,19.90
2023-02-04T19:13:22.274Z,20.20
2023-02-04T19:15:57.057Z,23.50
2023-02-04T19:18:26.822Z,20.50
2023-02-04T19:20:54.672Z,24.50
2023-02-04T19:23:24.414Z,24.80
2023-02-04T19:25:52.499Z,23.60
2023-02-04T19:28:37.307Z,20.50
2023-02-04T19:31:05.851Z,25.30
2023-02-04T19:33:37.926Z,22.60
2023-02-04T19:36:21.574Z,22.50
2023-02-04T19:38:53.187Z,21.10
2023-02-04T19:41:29.897Z,22.00
2023-02-04T19:44:09.851Z,22.70
2023-02-04T19:46:37.943Z,23.30
2023-02-04T19:49:17.708Z,21.00
2023-02-04T19:51:50.152Z,21.00
2023-02-04T19:54:23.234Z,23.80
2023-02-04T19:56:50.070Z,25.00
2023-02-04T19:59:28.769Z,21.40
2023-02-04T20:02:03.701Z,21.10
2023-02-04T20:04:36.833Z,23.70
2023-02-04T20:07:03.771Z,26.30
2023-02-04T20:09:35.120Z,22.10
2023-02-04T20:12:06.402Z,23.90
2023-02-04T20:14:52.060Z,25.80
2023-02-04T20:17:39.087Z,21.90
2023-02-04T20:22:48.008Z,22.30
2023-02-04T20:25:42.068Z,22.50
2023-02-04T20:28:38.464Z,24.00
2023-02-04T20:31:24.928Z,25.20
2023-02-04T20:33:54.344Z,23.60
2023-02-04T20:36:43.742Z,23.40
2023-02-04T20:39:35.164Z,22.10
2023-02-04T20:42:21.773Z,22.70
2023-02-04T20:44:49.515Z,24.20
2023-02-04T20:47:20.813Z,22.50
2023-02-04T20:49:55.232Z,23.00
2023-02-04T20:52:57.367Z,26.40
2023-02-04T20:55:27.444Z,21.90
2023-02-04T20:57:55.253Z,26.10
2023-02-04T21:00:30.358Z,23.70
2023-02-04T21:02:58.936Z,24.30
2023-02-04T21:05:26.107Z,27.90
2023-02-04T21:07:56.403Z,23.60
2023-02-04T21:10:23.153Z,26.90
2023-02-04T21:12:51.869Z,28.00
2023-02-04T21:15:18.790Z,25.80
2023-02-04T21:17:45.585Z,25.40
2023-02-04T21:20:13.856Z,26.90
2023-02-04T21:22:40.739Z,25.30
2023-02-04T21:25:09.163Z,24.30
2023-02-04T21:27:36.019Z,26.70
2023-02-04T21:30:03.138Z,25.70
2023-02-04T21:32:29.954Z,28.20
2023-02-04T21:34:57.012Z,26.80
2023-02-04T21:37:24.317Z,24.00
2023-02-04T21:39:51.122Z,26.60
2023-02-04T21:42:18.115Z,27.50
2023-02-04T21:44:45.061Z,28.30
2023-02-04T21:47:11.968Z,25.70
2023-02-04T21:49:41.339Z,30.80
2023-02-04T21:52:10.452Z,24.80
2023-02-04T21:54:37.723Z,27.60
2023-02-04T21:57:05.364Z,28.40
2023-02-04T21:59:32.397Z,32.10
2023-02-04T22:01:59.468Z,25.70
2023-02-04T22:04:26.360Z,31.80
2023-02-04T22:06:53.329Z,26.30
2023-02-04T22:09:20.148Z,29.10
2023-02-04T22:11:48.676Z,27.10
2023-02-04T22:14:15.760Z,31.10
2023-02-04T22:16:42.642Z,29.10
2023-02-04T22:19:09.463Z,30.60
2023-02-04T22:21:36.399Z,31.40
2023-02-04T22:24:03.293Z,31.20
2023-02-04T22:26:30.056Z,27.00
2023-02-04T22:28:57.126Z,28.30
2023-02-04T22:31:24.484Z,30.10
2023-02-04T22:33:51.429Z,28.60
2023-02-04T22:36:18.604Z,32.20
2023-02-04T22:38:45.720Z,32.30
2023-02-04T22:41:12.561Z,29.70
2023-02-04T22:43:39.477Z,30.00
2023-02-04T22:46:06.668Z,28.50
2023-02-04T22:48:33.590Z,27.30
2023-02-04T22:51:03.378Z,26.30
2023-02-04T22:53:30.139Z,32.20
2023-02-04T22:55:56.973Z,26.20
2023-02-04T22:58:23.958Z,29.50
2023-02-04T23:00:50.984Z,25.70
2023-02-04T23:03:17.829Z,29.90
2023-02-04T23:05:45.216Z,26.00
2023-02-04T23:08:11.990Z,27.60
2023-02-04T23:10:39.119Z,28.10
2023-02-04T23:13:07.343Z,31.20
2023-02-04T23:15:34.402Z,28.30
2023-02-04T23:18:01.739Z,26.10
2023-02-04T23:20:28.829Z,29.30
2023-02-04T23:22:55.850Z,29.10
2023-02-04T23:25:22.968Z,26.70
2023-02-04T23:27:50.262Z,31.50
2023-02-04T23:30:18.037Z,25.80
2023-02-04T23:32:44.889Z,28.20
2023-02-04T23:35:11.820Z,24.70
2023-02-04T23:37:38.647Z,23.20
2023-02-04T23:40:06.701Z,23.50
2023-02-04T23:42:34.372Z,20.20
2023-02-04T23:45:01.221Z,21.00
2023-02-04T23:47:28.140Z,22.40
2023-02-04T23:49:55.170Z,21.90
2023-02-04T23:52:21.930Z,24.80
2023-02-04T23:54:48.715Z,22.90
2023-02-04T23:57:15.576Z,19.70
2023-02-04T23:59:42.622Z,23.60
